createdAt,value
2019-02-19T00:01:35.382Z,4.90
2019-02-19T00:04:05.736Z,4.80
2019-02-19T00:06:36.248Z,4.80
2019-02-19T00:09:08.259Z,4.80
2019-02-19T00:11:38.959Z,4.80
2019-02-19T00:14:09.432Z,4.80
2019-02-19T00:16:39.893Z,4.80
2019-02-19T00:19:10.590Z,4.70
2019-02-19T00:21:44.290Z,4.80
2019-02-19T00:24:14.644Z,4.80
2019-02-19T00:26:45.496Z,4.70
2019-02-19T00:29:15.848Z,4.70
2019-02-19T00:31:46.426Z,4.70
2019-02-19T00:34:16.852Z,4.60
2019-02-19T00:36:47.411Z,4.60
2019-02-19T00:39:17.884Z,4.50
2019-02-19T00:41:48.366Z,4.40
2019-02-19T00:44:18.792Z,4.40
2019-02-19T00:46:49.408Z,4.30
2019-02-19T00:49:19.838Z,4.30
2019-02-19T00:51:50.259Z,4.20
2019-02-19T00:54:20.658Z,4.20
2019-02-19T00:56:51.306Z,4.10
2019-02-19T00:59:21.792Z,4.10
2019-02-19T01:01:52.602Z,4.00
2019-02-19T01:04:26.130Z,4.00
2019-02-19T01:06:56.600Z,4.00
2019-02-19T01:09:27.036Z,4.00
2019-02-19T01:11:57.742Z,4.00
2019-02-19T01:14:28.190Z,4.00
2019-02-19T01:16:58.956Z,3.90
2019-02-19T01:19:29.475Z,3.90
2019-02-19T01:21:59.972Z,3.90
2019-02-19T01:24:30.540Z,3.90
2019-02-19T01:27:01.078Z,3.90
2019-02-19T01:29:31.473Z,3.80
2019-02-19T01:32:01.864Z,3.80
2019-02-19T01:34:32.300Z,3.80
2019-02-19T01:37:02.786Z,3.80
2019-02-19T01:39:33.288Z,3.80
2019-02-19T01:42:04.053Z,3.80
2019-02-19T01:44:34.514Z,3.70
2019-02-19T01:47:05.809Z,3.70
2019-02-19T01:49:36.300Z,3.70
2019-02-19T01:52:06.728Z,3.70
2019-02-19T01:54:37.417Z,3.60
2019-02-19T01:57:07.862Z,3.60
2019-02-19T01:59:38.302Z,3.50
2019-02-19T02:02:08.727Z,3.50
2019-02-19T02:04:39.147Z,3.50
2019-02-19T02:07:09.502Z,3.40
2019-02-19T02:09:40.352Z,3.40
2019-02-19T02:12:10.758Z,3.40
2019-02-19T02:14:41.245Z,3.30
2019-02-19T02:17:11.724Z,3.20
2019-02-19T02:19:42.139Z,3.20
2019-02-19T02:22:12.564Z,3.20
2019-02-19T02:24:42.908Z,3.20
2019-02-19T02:27:13.714Z,3.10
2019-02-19T02:29:44.268Z,3.10
2019-02-19T02:32:14.948Z,3.10
2019-02-19T02:34:45.497Z,3.00
2019-02-19T02:37:15.910Z,3.00
2019-02-19T02:39:46.743Z,2.90
2019-02-19T02:42:17.118Z,2.90
2019-02-19T02:44:47.529Z,2.90
2019-02-19T02:47:18.203Z,2.90
2019-02-19T02:49:48.664Z,2.80
2019-02-19T02:52:19.054Z,2.80
2019-02-19T02:54:49.467Z,2.70
2019-02-19T02:57:19.966Z,2.70
2019-02-19T02:59:50.431Z,2.70
2019-02-19T03:02:22.158Z,2.70
2019-02-19T03:04:52.617Z,2.60
2019-02-19T03:07:31.485Z,2.60
2019-02-19T03:10:02.440Z,2.60
2019-02-19T03:12:32.959Z,2.60
2019-02-19T03:15:03.783Z,2.60
2019-02-19T03:17:34.283Z,2.50
2019-02-19T03:20:05.734Z,2.50
2019-02-19T03:22:36.437Z,2.50
2019-02-19T03:25:07.302Z,2.50
2019-02-19T03:27:37.668Z,2.50
2019-02-19T03:30:10.524Z,2.50
2019-02-19T03:32:40.893Z,2.50
2019-02-19T03:35:11.356Z,2.50
2019-02-19T03:37:41.825Z,2.50
2019-02-19T03:40:12.645Z,2.40
2019-02-19T03:42:43.219Z,2.40
2019-02-19T03:45:13.704Z,2.40
2019-02-19T03:47:44.437Z,2.40
2019-02-19T03:50:14.862Z,2.40
2019-02-19T03:52:45.306Z,2.40
2019-02-19T03:55:16.069Z,2.40
2019-02-19T03:57:46.544Z,2.40
2019-02-19T04:00:16.990Z,2.30
2019-02-19T04:02:48.381Z,2.30
2019-02-19T04:05:19.255Z,2.30
2019-02-19T04:07:49.625Z,2.20
2019-02-19T04:10:20.344Z,2.30
2019-02-19T04:12:50.878Z,2.20
2019-02-19T04:15:21.848Z,2.20
2019-02-19T04:17:52.510Z,2.20
2019-02-19T04:20:22.971Z,2.20
2019-02-19T04:22:53.514Z,2.20
2019-02-19T04:25:23.859Z,2.20
2019-02-19T04:27:55.205Z,2.20
2019-02-19T04:30:25.599Z,2.10
2019-02-19T04:32:56.032Z,2.10
2019-02-19T04:35:26.423Z,2.10
2019-02-19T04:37:56.979Z,2.10
2019-02-19T04:40:27.322Z,2.00
2019-02-19T04:42:57.720Z,2.00
2019-02-19T04:45:28.151Z,2.00
2019-02-19T04:47:58.570Z,2.00
2019-02-19T04:50:29.197Z,1.90
2019-02-19T04:52:59.771Z,1.90
2019-02-19T04:55:30.299Z,1.90
2019-02-19T04:58:00.851Z,1.90
2019-02-19T05:00:31.322Z,1.80
2019-02-19T05:03:01.717Z,1.80
2019-02-19T05:05:32.178Z,1.80
2019-02-19T05:08:02.955Z,1.70
2019-02-19T05:10:33.429Z,1.70
2019-02-19T05:13:04.272Z,1.70
2019-02-19T05:15:34.632Z,1.60
2019-02-19T05:18:06.115Z,1.60
2019-02-19T05:20:36.641Z,1.60
2019-02-19T05:23:07.560Z,1.50
2019-02-19T05:25:38.190Z,1.50
2019-02-19T05:28:08.869Z,1.50
2019-02-19T05:30:39.285Z,1.50
2019-02-19T05:33:12.974Z,1.50
2019-02-19T05:35:45.028Z,1.60
2019-02-19T05:38:15.714Z,1.60
2019-02-19T05:40:46.419Z,1.70
2019-02-19T05:43:18.011Z,1.70
2019-02-19T05:45:48.407Z,1.70
2019-02-19T05:48:19.131Z,1.60
2019-02-19T05:50:49.623Z,1.60
2019-02-19T05:53:20.285Z,1.50
2019-02-19T05:55:50.745Z,1.50
2019-02-19T05:58:21.579Z,1.50
2019-02-19T06:00:52.097Z,1.50
2019-02-19T06:03:22.629Z,1.50
2019-02-19T06:05:53.056Z,1.50
2019-02-19T06:08:23.534Z,1.60
2019-02-19T06:10:53.960Z,1.60
2019-02-19T06:13:24.422Z,1.70
2019-02-19T06:15:55.239Z,1.70
2019-02-19T06:18:25.847Z,1.80
2019-02-19T06:20:56.533Z,1.90
2019-02-19T06:23:26.979Z,2.00
2019-02-19T06:25:57.737Z,2.10
2019-02-19T06:28:28.195Z,2.10
2019-02-19T06:30:58.724Z,2.20
2019-02-19T06:33:29.070Z,2.30
2019-02-19T06:36:01.099Z,2.50
2019-02-19T06:38:32.816Z,2.70
2019-02-19T06:41:03.541Z,3.00
2019-02-19T06:43:33.874Z,3.10
2019-02-19T06:46:04.301Z,3.30
2019-02-19T06:48:35.232Z,3.50
2019-02-19T06:51:05.635Z,3.60
2019-02-19T06:53:36.138Z,3.60
2019-02-19T06:56:06.823Z,3.70
2019-02-19T06:58:37.383Z,3.80
2019-02-19T07:01:07.844Z,4.00
2019-02-19T07:03:55.282Z,4.20
2019-02-19T07:06:26.107Z,4.40
2019-02-19T07:08:56.553Z,4.60
2019-02-19T07:11:26.933Z,4.70
2019-02-19T07:13:59.095Z,5.00
2019-02-19T07:16:29.803Z,5.20
2019-02-19T07:19:00.545Z,5.40
2019-02-19T07:21:31.327Z,5.60
2019-02-19T07:24:04.426Z,5.70
2019-02-19T07:26:34.299Z,6.00
2019-02-19T07:29:05.037Z,6.30
2019-02-19T07:31:35.485Z,6.40
2019-02-19T07:34:05.872Z,6.70
2019-02-19T07:36:36.309Z,7.00
2019-02-19T07:39:07.261Z,7.20
2019-02-19T07:41:37.717Z,7.40
2019-02-19T07:44:08.354Z,7.50
2019-02-19T07:46:39.104Z,7.60
2019-02-19T07:49:09.506Z,7.60
2019-02-19T07:51:39.981Z,7.70
2019-02-19T07:54:10.530Z,7.80
2019-02-19T07:56:41.751Z,8.20
2019-02-19T07:59:12.751Z,8.20
2019-02-19T08:01:43.264Z,8.50
2019-02-19T08:04:13.643Z,8.70
2019-02-19T08:06:44.737Z,9.00
2019-02-19T08:09:15.421Z,9.20
2019-02-19T08:11:46.020Z,9.50
2019-02-19T08:14:19.137Z,9.60
2019-02-19T08:16:49.926Z,10.00
2019-02-19T08:19:21.123Z,10.30
2019-02-19T08:21:52.151Z,10.50
2019-02-19T08:24:22.547Z,10.70
2019-02-19T08:26:54.775Z,10.90
2019-02-19T08:29:25.247Z,10.60
2019-02-19T08:31:56.004Z,10.90
2019-02-19T08:34:26.479Z,11.00
2019-02-19T08:36:56.973Z,11.10
2019-02-19T08:39:27.647Z,11.30
2019-02-19T08:41:58.107Z,11.40
2019-02-19T08:44:28.606Z,11.30
2019-02-19T08:46:59.009Z,11.50
2019-02-19T08:49:29.454Z,11.60
2019-02-19T08:52:00.303Z,11.70
2019-02-19T08:54:30.671Z,11.80
2019-02-19T08:57:01.129Z,12.00
2019-02-19T08:59:34.294Z,12.20
2019-02-19T09:02:05.049Z,12.20
2019-02-19T09:04:35.695Z,12.30
2019-02-19T09:07:06.520Z,12.40
2019-02-19T09:09:37.031Z,12.40
2019-02-19T09:12:07.558Z,12.70
2019-02-19T09:14:37.956Z,12.90
2019-02-19T09:17:08.389Z,12.90
2019-02-19T09:19:38.897Z,13.00
2019-02-19T09:22:09.655Z,13.10
2019-02-19T09:24:40.005Z,13.10
2019-02-19T09:27:10.415Z,13.20
2019-02-19T09:29:40.820Z,13.40
2019-02-19T09:32:11.271Z,13.60
2019-02-19T09:34:41.821Z,13.60
2019-02-19T09:37:12.219Z,13.90
2019-02-19T09:39:42.603Z,14.10
2019-02-19T09:42:13.048Z,14.40
2019-02-19T09:44:43.465Z,14.70
2019-02-19T09:47:14.031Z,14.90
2019-02-19T09:49:44.385Z,15.00
2019-02-19T09:52:14.857Z,15.10
2019-02-19T09:54:45.304Z,15.20
2019-02-19T09:57:15.908Z,15.10
2019-02-19T09:59:46.320Z,15.30
2019-02-19T10:02:16.828Z,15.40
2019-02-19T10:04:47.644Z,15.60
2019-02-19T10:07:19.346Z,15.80
2019-02-19T10:09:50.193Z,15.90
2019-02-19T10:12:20.724Z,16.10
2019-02-19T10:14:51.056Z,16.00
2019-02-19T10:17:21.547Z,16.10
2019-02-19T10:19:52.310Z,16.30
2019-02-19T10:22:22.773Z,16.30
2019-02-19T10:24:53.184Z,16.40
2019-02-19T10:27:23.544Z,16.30
2019-02-19T10:29:54.015Z,16.30
2019-02-19T10:32:24.565Z,16.50
2019-02-19T10:34:55.378Z,16.50
2019-02-19T10:37:25.937Z,16.50
2019-02-19T10:39:56.368Z,16.50
2019-02-19T10:42:26.775Z,16.50
2019-02-19T10:44:59.007Z,16.70
2019-02-19T10:47:29.366Z,16.60
2019-02-19T10:49:59.771Z,16.90
2019-02-19T10:52:30.138Z,16.80
2019-02-19T10:55:00.619Z,16.80
2019-02-19T10:57:31.342Z,16.80
2019-02-19T11:00:02.224Z,16.80
2019-02-19T11:02:34.082Z,17.10
2019-02-19T11:05:05.072Z,17.20
2019-02-19T11:07:35.464Z,17.30
2019-02-19T11:10:07.245Z,17.30
2019-02-19T11:12:37.657Z,17.50
2019-02-19T11:15:08.990Z,17.80
2019-02-19T11:17:39.386Z,17.80
2019-02-19T11:20:11.288Z,17.70
2019-02-19T11:22:41.694Z,17.60
2019-02-19T11:25:12.896Z,17.80
2019-02-19T11:27:43.300Z,17.60
2019-02-19T11:30:15.353Z,17.30
2019-02-19T11:32:45.774Z,17.30
2019-02-19T11:35:16.294Z,17.40
2019-02-19T11:37:48.465Z,17.30
2019-02-19T11:40:18.870Z,17.50
2019-02-19T11:42:49.265Z,17.60
2019-02-19T11:45:20.103Z,17.80
2019-02-19T11:47:50.528Z,18.10
2019-02-19T11:50:20.924Z,18.40
2019-02-19T11:52:51.423Z,18.70
2019-02-19T11:55:22.217Z,18.80
2019-02-19T11:57:52.689Z,18.80
2019-02-19T12:00:28.375Z,18.60
2019-02-19T12:02:59.075Z,18.50
2019-02-19T12:05:29.575Z,18.60
2019-02-19T12:08:00.396Z,18.60
2019-02-19T12:10:31.026Z,18.60
2019-02-19T12:13:03.296Z,18.80
2019-02-19T12:15:35.422Z,18.60
2019-02-19T12:18:05.835Z,18.60
2019-02-19T12:20:36.773Z,18.70
2019-02-19T12:23:07.372Z,18.90
2019-02-19T12:25:37.925Z,18.80
2019-02-19T12:28:08.376Z,18.70
2019-02-19T12:30:38.814Z,18.60
2019-02-19T12:33:09.321Z,18.50
2019-02-19T12:35:39.737Z,18.40
2019-02-19T12:38:10.375Z,18.20
2019-02-19T12:40:40.746Z,18.30
2019-02-19T12:43:11.349Z,18.30
2019-02-19T12:45:42.067Z,18.10
2019-02-19T12:49:10.245Z,18.30
2019-02-19T12:51:41.130Z,18.20
2019-02-19T12:54:11.512Z,18.30
2019-02-19T12:56:41.937Z,18.10
2019-02-19T12:59:12.595Z,18.00
2019-02-19T13:01:43.020Z,17.90
2019-02-19T13:04:13.472Z,17.60
2019-02-19T13:06:44.054Z,17.70
2019-02-19T13:09:14.809Z,17.70
2019-02-19T13:11:45.458Z,17.60
2019-02-19T13:14:16.033Z,17.30
2019-02-19T13:16:47.126Z,17.10
2019-02-19T13:19:17.510Z,17.00
2019-02-19T13:21:48.111Z,16.60
2019-02-19T13:24:18.501Z,16.20
2019-02-19T13:26:48.903Z,15.80
2019-02-19T13:29:19.297Z,15.40
2019-02-19T13:31:51.232Z,15.10
2019-02-19T13:34:21.622Z,14.80
2019-02-19T13:36:51.981Z,14.60
2019-02-19T13:39:22.611Z,14.50
2019-02-19T13:41:52.989Z,14.40
2019-02-19T13:44:23.356Z,14.20
2019-02-19T13:46:53.922Z,14.10
2019-02-19T13:49:24.492Z,14.10
2019-02-19T13:51:57.808Z,14.00
2019-02-19T13:54:42.432Z,14.00
2019-02-19T13:57:12.881Z,13.90
2019-02-19T13:59:43.453Z,13.80
2019-02-19T14:02:13.884Z,13.80
2019-02-19T14:04:45.584Z,13.70
2019-02-19T14:07:16.112Z,13.60
2019-02-19T14:09:46.890Z,13.60
2019-02-19T14:12:17.337Z,13.60
2019-02-19T14:14:55.841Z,13.50
2019-02-19T14:17:26.547Z,13.40
2019-02-19T14:20:04.691Z,13.30
2019-02-19T14:22:55.741Z,13.30
2019-02-19T14:26:00.213Z,13.20
2019-02-19T14:28:52.902Z,13.10
2019-02-19T14:31:31.090Z,13.10
2019-02-19T14:34:22.654Z,13.10
2019-02-19T14:37:12.793Z,13.00
2019-02-19T14:39:55.413Z,13.00
2019-02-19T14:42:50.975Z,12.90
2019-02-19T14:45:33.727Z,12.80
2019-02-19T14:48:18.200Z,12.80
2019-02-19T14:51:13.777Z,12.70
2019-02-19T14:53:54.224Z,12.60
2019-02-19T14:56:59.099Z,12.60
2019-02-19T14:59:39.310Z,12.50
2019-02-19T15:02:46.696Z,12.50
2019-02-19T15:05:36.191Z,12.40
2019-02-19T15:08:24.206Z,12.40
2019-02-19T15:11:17.610Z,12.30
2019-02-19T15:14:05.935Z,12.20
2019-02-19T15:16:58.226Z,12.20
2019-02-19T15:19:40.462Z,12.10
2019-02-19T15:22:35.782Z,12.00
2019-02-19T15:25:24.370Z,11.90
2019-02-19T15:28:07.754Z,11.80
2019-02-19T15:30:57.006Z,11.80
2019-02-19T15:33:49.710Z,11.70
2019-02-19T15:36:38.566Z,11.60
2019-02-19T15:42:12.166Z,11.60
2019-02-19T15:45:04.038Z,11.40
2019-02-19T15:48:09.028Z,11.30
2019-02-19T15:51:16.650Z,11.20
2019-02-19T15:54:03.405Z,11.30
2019-02-19T15:56:51.445Z,11.20
2019-02-19T15:59:32.362Z,11.10
2019-02-19T16:02:21.848Z,11.00
2019-02-19T16:04:59.524Z,10.90
2019-02-19T16:07:39.264Z,10.80
2019-02-19T16:10:26.784Z,10.80
2019-02-19T16:13:02.263Z,10.70
2019-02-19T16:15:45.574Z,10.60
2019-02-19T16:18:41.183Z,10.50
2019-02-19T16:21:32.931Z,10.40
2019-02-19T16:24:16.915Z,10.40
2019-02-19T16:26:55.976Z,10.30
2019-02-19T16:29:41.973Z,10.30
2019-02-19T16:32:31.280Z,10.20
2019-02-19T16:35:23.711Z,10.20
2019-02-19T16:38:09.217Z,10.20
2019-02-19T16:40:58.822Z,10.10
2019-02-19T16:44:03.602Z,10.10
2019-02-19T16:46:43.178Z,10.00
2019-02-19T16:49:29.532Z,10.00
2019-02-19T16:52:06.045Z,10.00
2019-02-19T16:54:51.260Z,9.90
2019-02-19T16:57:46.986Z,9.80
2019-02-19T17:00:28.360Z,9.80
2019-02-19T17:03:09.363Z,9.70
2019-02-19T17:05:58.003Z,9.70
2019-02-19T17:08:52.953Z,9.60
2019-02-19T17:11:33.464Z,9.60
2019-02-19T17:14:21.490Z,9.60
2019-02-19T17:17:10.880Z,9.50
2019-02-19T17:20:21.067Z,9.50
2019-02-19T17:23:00.433Z,9.40
2019-02-19T17:25:48.476Z,9.40
2019-02-19T17:28:33.444Z,9.30
2019-02-19T17:31:29.355Z,9.30
2019-02-19T17:34:10.812Z,9.20
2019-02-19T17:37:12.531Z,9.20
2019-02-19T17:40:00.363Z,9.10
2019-02-19T17:42:51.632Z,9.10
2019-02-19T17:45:40.000Z,9.10
2019-02-19T17:48:24.932Z,9.10
2019-02-19T17:51:13.053Z,9.10
2019-02-19T17:53:55.892Z,9.10
2019-02-19T17:56:36.201Z,9.20
2019-02-19T17:59:22.400Z,9.20
2019-02-19T18:02:11.763Z,9.20
2019-02-19T18:04:49.083Z,9.20
2019-02-19T18:07:44.265Z,9.20
2019-02-19T18:10:51.657Z,9.30
2019-02-19T18:13:41.411Z,9.20
2019-02-19T18:16:33.617Z,9.30
2019-02-19T18:19:04.251Z,9.20
2019-02-19T18:21:34.682Z,9.30
2019-02-19T18:24:05.280Z,9.20
2019-02-19T18:26:35.739Z,9.30
2019-02-19T18:29:06.273Z,9.20
2019-02-19T18:31:37.348Z,9.20
2019-02-19T18:34:07.730Z,9.20
2019-02-19T18:36:38.250Z,9.20
2019-02-19T18:39:09.394Z,9.20
2019-02-19T18:41:39.821Z,9.20
2019-02-19T18:44:10.295Z,9.20
2019-02-19T18:46:40.628Z,9.20
2019-02-19T18:49:11.498Z,9.20
2019-02-19T18:51:42.098Z,9.10
2019-02-19T18:54:12.556Z,9.10
2019-02-19T18:56:42.958Z,9.10
2019-02-19T18:59:13.606Z,9.10
2019-02-19T19:01:44.281Z,9.10
2019-02-19T19:04:14.724Z,9.20
2019-02-19T19:06:45.512Z,9.10
2019-02-19T19:09:16.072Z,9.10
2019-02-19T19:11:46.814Z,9.00
2019-02-19T19:14:17.621Z,9.00
2019-02-19T19:16:48.281Z,9.00
2019-02-19T19:19:18.652Z,9.00
2019-02-19T19:21:52.108Z,9.00
2019-02-19T19:24:22.451Z,9.00
2019-02-19T19:26:52.842Z,8.90
2019-02-19T19:29:23.241Z,8.90
2019-02-19T19:31:53.703Z,8.80
2019-02-19T19:34:24.118Z,8.80
2019-02-19T19:36:54.819Z,8.80
2019-02-19T19:39:25.392Z,8.80
2019-02-19T19:41:55.751Z,8.80
2019-02-19T19:44:26.218Z,8.70
2019-02-19T19:46:56.774Z,8.70
2019-02-19T19:49:27.219Z,8.70
2019-02-19T19:51:57.752Z,8.60
2019-02-19T19:54:28.221Z,8.60
2019-02-19T19:56:58.790Z,8.60
2019-02-19T19:59:30.734Z,8.50
2019-02-19T20:02:01.185Z,8.40
2019-02-19T20:04:32.086Z,8.40
2019-02-19T20:07:02.626Z,8.40
2019-02-19T20:09:33.561Z,8.30
2019-02-19T20:12:04.765Z,8.20
2019-02-19T20:14:35.116Z,8.20
2019-02-19T20:17:05.620Z,8.20
2019-02-19T20:19:36.073Z,8.20
2019-02-19T20:22:06.673Z,8.20
2019-02-19T20:24:37.144Z,8.20
2019-02-19T20:27:08.215Z,8.20
2019-02-19T20:29:38.710Z,8.20
2019-02-19T20:32:09.238Z,8.20
2019-02-19T20:34:41.323Z,8.20
2019-02-19T20:37:13.947Z,8.20
2019-02-19T20:39:44.913Z,8.20
2019-02-19T20:42:15.572Z,8.10
2019-02-19T20:44:46.442Z,8.10
2019-02-19T20:47:17.025Z,8.10
2019-02-19T20:49:47.694Z,8.10
2019-02-19T20:52:19.619Z,8.10
2019-02-19T20:54:50.049Z,8.10
2019-02-19T20:57:20.459Z,8.10
2019-02-19T20:59:51.210Z,8.10
2019-02-19T21:02:22.064Z,8.10
2019-02-19T21:04:52.481Z,8.00
2019-02-19T21:07:22.918Z,8.00
2019-02-19T21:09:54.889Z,8.00
2019-02-19T21:12:25.405Z,7.90
2019-02-19T21:14:55.824Z,7.90
2019-02-19T21:17:26.342Z,7.90
2019-02-19T21:19:56.974Z,7.80
2019-02-19T21:22:27.508Z,7.80
2019-02-19T21:24:58.615Z,7.80
2019-02-19T21:27:29.171Z,7.70
2019-02-19T21:29:59.975Z,7.70
2019-02-19T21:32:30.591Z,7.70
2019-02-19T21:35:01.497Z,7.60
2019-02-19T21:37:33.227Z,7.60
2019-02-19T21:40:04.531Z,7.50
2019-02-19T21:42:36.585Z,7.40
2019-02-19T21:45:07.999Z,7.40
2019-02-19T21:47:39.861Z,7.30
2019-02-19T21:50:11.183Z,7.30
2019-02-19T21:52:41.885Z,7.20
2019-02-19T21:55:12.824Z,7.20
2019-02-19T21:57:43.314Z,7.20
2019-02-19T22:00:15.486Z,7.20
2019-02-19T22:02:47.777Z,7.10
2019-02-19T22:05:18.176Z,7.10
2019-02-19T22:07:48.700Z,7.10
2019-02-19T22:10:19.179Z,7.00
2019-02-19T22:12:49.719Z,7.00
2019-02-19T22:15:20.479Z,7.00
2019-02-19T22:17:51.037Z,7.00
2019-02-19T22:20:37.821Z,7.00
2019-02-19T22:23:08.645Z,7.00
2019-02-19T22:25:39.011Z,6.90
2019-02-19T22:28:09.464Z,6.90
2019-02-19T22:30:40.001Z,6.90
2019-02-19T22:33:10.458Z,6.90
2019-02-19T22:35:40.797Z,6.80
2019-02-19T22:38:11.235Z,6.80
2019-02-19T22:40:41.600Z,6.80
2019-02-19T22:43:12.277Z,6.70
2019-02-19T22:45:42.625Z,6.70
2019-02-19T22:48:13.057Z,6.60
2019-02-19T22:50:43.823Z,6.60
2019-02-19T22:53:42.347Z,6.60
2019-02-19T22:56:20.016Z,6.50
2019-02-19T22:58:50.536Z,6.60
2019-02-19T23:01:41.150Z,6.50
2019-02-19T23:04:11.775Z,6.50
2019-02-19T23:06:42.203Z,6.50
2019-02-19T23:09:12.605Z,6.60
2019-02-19T23:11:42.953Z,6.60
2019-02-19T23:14:13.965Z,6.60
2019-02-19T23:16:44.472Z,6.60
2019-02-19T23:19:17.113Z,6.60
2019-02-19T23:21:49.651Z,6.60
2019-02-19T23:24:20.459Z,6.70
2019-02-19T23:26:51.250Z,6.60
2019-02-19T23:29:21.759Z,6.70
2019-02-19T23:31:52.265Z,6.70
2019-02-19T23:34:22.711Z,6.60
2019-02-19T23:36:56.479Z,6.60
2019-02-19T23:39:26.925Z,6.70
2019-02-19T23:41:57.323Z,6.70
2019-02-19T23:44:27.765Z,6.70
2019-02-19T23:46:58.299Z,6.70
2019-02-19T23:49:28.745Z,6.70
2019-02-19T23:51:59.092Z,6.70
2019-02-19T23:54:29.619Z,6.70
2019-02-19T23:56:59.993Z,6.70
2019-02-19T23:59:30.510Z,6.70
